createdAt,value
2022-08-09T05:37:46.409Z,15.90
2022-08-09T05:40:17.094Z,16.10
2022-08-09T05:42:47.420Z,16.40
2022-08-09T05:45:17.182Z,16.50
2022-08-09T05:47:52.121Z,16.70
2022-08-09T05:50:36.151Z,16.80
2022-08-09T05:53:31.743Z,17.20
2022-08-09T05:56:01.792Z,17.50
2022-08-09T05:58:30.668Z,17.80
2022-08-09T06:01:00.504Z,17.90
2022-08-09T06:03:34.861Z,18.10
2022-08-09T06:06:14.086Z,18.30
2022-08-09T06:08:44.460Z,18.70
2022-08-09T06:11:21.921Z,19.00
2022-08-09T06:14:09.703Z,19.20
2022-08-09T06:16:42.185Z,19.50
2022-08-09T06:19:21.111Z,19.80
2022-08-09T06:21:58.517Z,20.10
2022-08-09T06:24:29.564Z,20.40
2022-08-09T06:26:58.540Z,20.70
2022-08-09T06:29:27.405Z,20.80
2022-08-09T06:32:08.387Z,20.90
2022-08-09T06:34:38.365Z,21.20
2022-08-09T06:37:08.102Z,21.40
2022-08-09T06:39:57.890Z,21.60
2022-08-09T06:42:30.855Z,21.90
2022-08-09T06:46:05.257Z,21.90
2022-08-09T06:48:00.655Z,22.10
2022-08-09T06:50:31.140Z,22.60
2022-08-09T06:53:02.902Z,22.90
2022-08-09T06:55:34.288Z,23.10
2022-08-09T06:58:04.755Z,23.20
2022-08-09T07:00:51.082Z,23.40
2022-08-09T07:03:28.591Z,23.70
2022-08-09T07:06:04.866Z,23.90
2022-08-09T07:08:37.435Z,24.10
2022-08-09T07:11:12.349Z,24.20
2022-08-09T07:14:04.562Z,24.40
2022-08-09T07:16:40.641Z,24.60
2022-08-09T07:19:15.577Z,24.70
2022-08-09T07:21:55.592Z,25.10
2022-08-09T07:24:32.773Z,25.50
2022-08-09T07:27:27.200Z,25.50
2022-08-09T07:30:02.679Z,25.40
2022-08-09T07:32:33.035Z,25.50
2022-08-09T07:35:07.939Z,25.30
2022-08-09T07:37:44.031Z,25.20
2022-08-09T07:40:18.288Z,25.30
2022-08-09T07:42:54.905Z,25.60
2022-08-09T07:45:40.281Z,25.80
2022-08-09T07:48:25.717Z,26.10
2022-08-09T07:51:10.156Z,26.40
2022-08-09T07:54:07.432Z,26.60
2022-08-09T07:59:34.197Z,27.60
2022-08-09T08:02:09.945Z,27.50
2022-08-09T08:04:40.086Z,27.50
2022-08-09T08:07:15.140Z,27.30
2022-08-09T08:10:07.921Z,26.90
2022-08-09T08:12:43.147Z,26.90
2022-08-09T08:15:17.797Z,27.30
2022-08-09T08:17:54.635Z,27.40
2022-08-09T08:20:28.990Z,27.80
2022-08-09T08:23:03.388Z,28.00
2022-08-09T08:25:44.650Z,28.30
2022-08-09T08:30:56.442Z,28.70
2022-08-09T08:33:26.592Z,29.10
2022-08-09T08:36:29.175Z,29.70
2022-08-09T08:41:42.232Z,30.20
2022-08-09T08:44:22.969Z,30.30
2022-08-09T08:46:59.759Z,30.10
2022-08-09T08:49:47.108Z,30.10
2022-08-09T08:55:08.788Z,30.80
2022-08-09T08:57:38.131Z,30.90
2022-08-09T09:00:17.062Z,31.40
2022-08-09T09:02:55.736Z,31.40
2022-08-09T09:05:54.281Z,32.10
2022-08-09T09:08:30.732Z,32.20
2022-08-09T09:11:04.275Z,32.10
2022-08-09T09:13:54.881Z,32.00
2022-08-09T09:16:30.557Z,32.00
2022-08-09T09:24:37.947Z,33.20
2022-08-09T09:27:21.780Z,33.00
2022-08-09T09:30:14.203Z,33.40
2022-08-09T09:33:15.307Z,33.40
2022-08-09T09:36:02.001Z,33.10
2022-08-09T09:38:44.443Z,33.40
2022-08-09T09:41:14.149Z,33.70
2022-08-09T09:44:10.975Z,33.60
2022-08-09T09:46:42.996Z,33.00
2022-08-09T09:49:32.026Z,33.40
2022-08-09T09:52:33.552Z,33.70
2022-08-09T09:55:16.184Z,33.70
2022-08-09T09:58:01.261Z,33.30
2022-08-09T10:00:34.404Z,33.30
2022-08-09T10:03:09.129Z,33.30
2022-08-09T10:06:04.158Z,33.10
2022-08-09T10:08:54.190Z,32.80
2022-08-09T10:11:59.220Z,32.80
2022-08-09T10:14:30.427Z,32.90
2022-08-09T10:17:39.792Z,32.90
2022-08-09T10:20:00.298Z,33.20
2022-08-09T10:22:36.489Z,33.50
2022-08-09T10:25:12.306Z,33.90
2022-08-09T10:27:56.169Z,33.90
2022-08-09T10:34:04.649Z,33.80
2022-08-09T10:36:11.460Z,33.80
2022-08-09T10:38:56.051Z,34.00
2022-08-09T10:41:30.059Z,34.20
2022-08-09T10:44:01.752Z,34.20
2022-08-09T10:46:55.715Z,33.70
2022-08-09T10:49:49.890Z,33.90
2022-08-09T10:52:36.682Z,33.90
2022-08-09T10:55:22.724Z,33.90
2022-08-09T10:57:55.870Z,33.70
2022-08-09T11:00:56.878Z,33.60
2022-08-09T11:03:49.861Z,33.90
2022-08-09T11:06:24.781Z,34.10
2022-08-09T11:08:54.190Z,33.90
2022-08-09T11:11:24.659Z,33.90
2022-08-09T11:14:35.391Z,33.90
2022-08-09T11:18:02.598Z,34.00
2022-08-09T11:20:49.807Z,34.10
2022-08-09T11:23:23.806Z,34.10
2022-08-09T11:25:54.876Z,34.20
2022-08-09T11:28:56.136Z,33.80
2022-08-09T11:31:49.880Z,33.70
2022-08-09T11:34:43.187Z,33.90
2022-08-09T11:37:25.379Z,33.80
2022-08-09T11:40:04.941Z,33.80
2022-08-09T11:42:43.484Z,33.80
2022-08-09T11:45:26.325Z,33.60
2022-08-09T11:48:26.703Z,33.60
2022-08-09T11:52:48.989Z,33.70
2022-08-09T11:54:21.488Z,33.50
2022-08-09T11:57:47.777Z,33.70
2022-08-09T12:00:27.301Z,33.70
2022-08-09T12:02:58.179Z,33.50
2022-08-09T12:05:39.844Z,34.00
2022-08-09T12:08:21.387Z,34.00
2022-08-09T12:10:53.759Z,33.80
2022-08-09T12:14:07.571Z,33.90
2022-08-09T12:16:37.657Z,34.10
2022-08-09T12:19:09.571Z,34.50
2022-08-09T12:21:48.605Z,34.50
2022-08-09T12:24:24.094Z,34.40
2022-08-09T12:29:11.081Z,34.30
2022-08-09T12:30:04.001Z,34.20
2022-08-09T12:32:45.287Z,34.10
2022-08-09T12:35:21.540Z,34.20
2022-08-09T12:37:53.943Z,34.10
2022-08-09T15:24:31.378Z,32.00
2022-08-09T15:27:00.374Z,31.90
2022-08-09T15:30:59.793Z,31.90
2022-08-09T15:32:28.582Z,31.90
2022-08-09T15:35:01.238Z,32.00
2022-08-09T15:37:57.281Z,32.30
2022-08-09T15:40:31.962Z,32.30
2022-08-09T15:43:04.204Z,32.20
2022-08-09T15:46:07.941Z,32.00
2022-08-09T15:48:28.894Z,31.90
2022-08-09T15:50:58.547Z,31.80
2022-08-09T15:54:03.570Z,31.90
2022-08-09T15:56:30.737Z,31.80
2022-08-09T15:59:00.398Z,31.70
2022-08-09T16:01:35.274Z,31.60
2022-08-09T16:04:06.435Z,31.50
2022-08-09T16:06:44.687Z,31.20
2022-08-09T16:09:19.525Z,31.20
2022-08-09T16:12:11.267Z,31.20
2022-08-09T16:14:40.524Z,31.20
2022-08-09T16:17:09.485Z,31.20
2022-08-09T16:19:49.321Z,31.20
2022-08-09T16:22:29.140Z,31.20
2022-08-09T16:24:59.506Z,30.90
2022-08-09T16:27:30.368Z,30.70
2022-08-09T16:30:02.397Z,30.60
2022-08-09T16:33:07.268Z,30.80
2022-08-09T16:35:57.441Z,30.80
2022-08-09T16:38:29.638Z,30.80
2022-08-09T16:41:08.029Z,30.80
2022-08-09T16:43:44.718Z,30.80
2022-08-09T16:46:14.840Z,30.80
2022-08-09T16:48:55.652Z,30.70
2022-08-09T16:51:29.643Z,30.50
2022-08-09T16:56:49.411Z,30.10
2022-08-09T16:59:19.018Z,29.90
2022-08-09T17:01:51.429Z,29.70
2022-08-09T17:04:25.847Z,29.60
2022-08-09T17:08:41.483Z,29.50
2022-08-09T17:09:48.722Z,29.40
2022-08-09T17:12:19.764Z,29.20
2022-08-09T17:14:50.691Z,29.00
2022-08-09T17:17:27.813Z,28.90
2022-08-09T17:20:32.324Z,28.90
2022-08-09T17:22:49.829Z,28.70
2022-08-09T17:25:19.499Z,28.70
2022-08-09T17:27:48.841Z,28.60
2022-08-09T17:30:19.807Z,28.60
2022-08-09T17:32:49.474Z,28.50
2022-08-09T17:35:18.262Z,28.60
2022-08-09T17:38:11.305Z,28.60
2022-08-09T17:40:38.714Z,28.60
2022-08-09T17:43:33.165Z,28.40
2022-08-09T17:46:03.388Z,28.30
2022-08-09T17:48:39.449Z,28.20
2022-08-09T17:51:18.755Z,28.20
2022-08-09T17:53:54.629Z,28.10
2022-08-09T17:56:28.444Z,28.10
2022-08-09T17:59:01.231Z,28.00
2022-08-09T18:02:03.253Z,27.90
2022-08-09T18:04:21.921Z,27.90
2022-08-09T18:06:54.924Z,27.70
2022-08-09T18:09:40.332Z,27.70
2022-08-09T18:12:15.277Z,27.60
2022-08-09T18:14:50.008Z,27.60
2022-08-09T18:17:27.325Z,27.60
2022-08-09T18:20:56.142Z,27.50
2022-08-09T18:23:05.371Z,27.50
2022-08-09T18:25:52.719Z,27.40
2022-08-09T18:30:42.517Z,27.50
2022-08-09T18:31:13.489Z,27.40
2022-08-09T18:33:48.862Z,27.40
2022-08-09T18:36:25.670Z,27.30
2022-08-09T18:39:02.640Z,27.00
2022-08-09T18:41:35.334Z,26.80
2022-08-09T18:44:12.534Z,26.50
2022-08-09T18:46:49.088Z,26.40
2022-08-09T18:49:23.630Z,26.40
2022-08-09T18:51:55.025Z,26.20
2022-08-09T18:54:29.012Z,26.00
2022-08-09T18:57:05.899Z,25.60
2022-08-09T18:59:48.672Z,25.40
2022-08-09T19:02:19.172Z,25.40
2022-08-09T19:05:03.860Z,25.30
2022-08-09T19:07:37.429Z,25.20
2022-08-09T19:10:16.673Z,25.00
2022-08-09T19:12:56.509Z,25.00
2022-08-09T19:15:38.528Z,24.90
2022-08-09T19:18:07.708Z,24.80
2022-08-09T19:20:46.390Z,24.80
2022-08-09T19:24:39.789Z,24.70
2022-08-09T19:26:15.549Z,24.60
2022-08-09T19:28:48.941Z,24.40
2022-08-09T19:31:17.946Z,24.30
2022-08-09T19:33:46.780Z,24.20
2022-08-09T19:36:15.620Z,24.10
2022-08-09T19:38:45.940Z,23.90
2022-08-09T19:41:32.702Z,23.80
2022-08-09T19:44:06.185Z,23.70
2022-08-09T19:50:06.884Z,23.70
2022-08-09T19:52:12.137Z,23.60
2022-08-09T19:54:41.529Z,23.60
2022-08-09T19:57:10.383Z,23.50
2022-08-09T20:00:05.526Z,23.50
2022-08-09T20:04:10.799Z,23.30
2022-08-09T20:05:18.478Z,23.20
2022-08-09T20:07:58.742Z,23.10
2022-08-09T20:10:34.561Z,22.80
2022-08-09T20:13:08.327Z,22.60
2022-08-09T20:16:33.878Z,22.30
2022-08-09T20:18:28.465Z,22.20
2022-08-09T20:20:57.825Z,22.00
2022-08-09T20:23:39.388Z,21.80
2022-08-09T20:26:13.013Z,21.70
2022-08-09T20:28:48.059Z,21.40
2022-08-09T20:31:19.341Z,21.10
2022-08-09T20:33:52.522Z,21.10
2022-08-09T20:36:31.068Z,20.90
2022-08-09T20:39:28.034Z,20.70
2022-08-09T20:41:49.568Z,20.60
2022-08-09T20:44:26.855Z,20.60
2022-08-09T20:46:59.219Z,20.40
2022-08-09T20:49:28.726Z,20.10
2022-08-09T20:51:57.884Z,20.00
